createdAt,value
2022-12-29T00:01:03.728Z,98261.66
2022-12-29T00:03:44.729Z,98265.38
2022-12-29T00:06:12.720Z,98257.81
2022-12-29T00:08:43.897Z,98255.03
2022-12-29T00:11:13.890Z,98247.81
2022-12-29T00:14:01.034Z,98248.19
2022-12-29T00:16:32.153Z,98239.78
2022-12-29T00:19:01.933Z,98240.75
2022-12-29T00:21:47.464Z,98243.38
2022-12-29T00:24:35.298Z,98240.03
2022-12-29T00:27:30.857Z,98229.22
2022-12-29T00:30:19.155Z,98231.47
2022-12-29T00:33:04.395Z,98228.47
2022-12-29T00:35:38.047Z,98228.00
2022-12-29T00:38:26.307Z,98225.59
2022-12-29T00:41:12.183Z,98222.19
2022-12-29T00:43:57.792Z,98219.06
2022-12-29T00:46:25.923Z,98215.06
2022-12-29T00:49:11.842Z,98219.03
2022-12-29T00:51:41.391Z,98210.41
2022-12-29T00:54:09.592Z,98215.91
2022-12-29T00:56:37.621Z,98210.34
2022-12-29T00:59:06.775Z,98212.69
2022-12-29T01:01:35.744Z,98219.09
2022-12-29T01:04:04.633Z,98219.41
2022-12-29T01:06:33.731Z,98218.25
2022-12-29T01:09:20.664Z,98221.78
2022-12-29T01:11:49.197Z,98224.69
2022-12-29T01:14:18.009Z,98237.34
2022-12-29T01:16:46.902Z,98235.25
2022-12-29T01:19:20.012Z,98233.41
2022-12-29T01:21:51.536Z,98232.59
2022-12-29T01:24:23.136Z,98238.66
2022-12-29T01:26:51.086Z,98239.31
2022-12-29T01:29:19.304Z,98232.47
2022-12-29T01:31:48.386Z,98236.66
2022-12-29T01:34:16.288Z,98239.56
2022-12-29T01:36:44.198Z,98233.09
2022-12-29T01:39:16.574Z,98229.22
2022-12-29T01:41:50.116Z,98222.47
2022-12-29T01:44:50.855Z,98229.63
2022-12-29T01:47:24.721Z,98228.91
2022-12-29T01:49:55.393Z,98228.53
2022-12-29T01:52:26.216Z,98233.06
2022-12-29T01:54:57.217Z,98234.72
2022-12-29T01:57:35.004Z,98225.63
2022-12-29T02:00:09.119Z,98218.97
2022-12-29T02:02:47.077Z,98220.66
2022-12-29T02:05:26.445Z,98209.34
2022-12-29T02:07:55.361Z,98211.44
2022-12-29T02:10:25.639Z,98207.56
2022-12-29T02:12:56.358Z,98201.41
2022-12-29T02:15:42.339Z,98201.13
2022-12-29T02:18:25.940Z,98198.00
2022-12-29T02:21:34.143Z,98193.88
2022-12-29T02:24:44.123Z,98197.38
2022-12-29T02:27:38.362Z,98198.00
2022-12-29T02:30:17.841Z,98198.13
2022-12-29T02:32:54.759Z,98202.56
2022-12-29T02:35:32.899Z,98186.00
2022-12-29T02:38:13.767Z,98201.03
2022-12-29T02:40:45.419Z,98197.53
2022-12-29T02:43:24.738Z,98188.84
2022-12-29T02:45:58.591Z,98184.00
2022-12-29T02:48:33.340Z,98185.94
2022-12-29T02:51:05.479Z,98184.69
2022-12-29T02:53:54.540Z,98192.94
2022-12-29T02:56:23.082Z,98184.00
2022-12-29T02:58:51.128Z,98187.09
2022-12-29T03:01:29.095Z,98184.69
2022-12-29T03:04:27.895Z,98184.19
2022-12-29T03:07:06.534Z,98177.16
2022-12-29T03:09:42.591Z,98180.28
2022-12-29T03:12:20.857Z,98186.28
2022-12-29T03:15:17.637Z,98182.41
2022-12-29T03:17:56.075Z,98178.78
2022-12-29T03:20:39.769Z,98166.03
2022-12-29T03:23:09.278Z,98170.22
2022-12-29T03:25:41.845Z,98172.47
2022-12-29T03:28:20.741Z,98165.09
2022-12-29T03:30:50.737Z,98163.56
2022-12-29T03:33:27.822Z,98157.75
2022-12-29T03:36:04.852Z,98158.53
2022-12-29T03:38:38.248Z,98165.53
2022-12-29T03:41:12.590Z,98165.94
2022-12-29T03:43:40.793Z,98157.75
2022-12-29T03:46:08.714Z,98153.84
2022-12-29T03:48:37.429Z,98145.47
2022-12-29T03:51:07.009Z,98141.28
2022-12-29T03:53:35.226Z,98138.47
2022-12-29T03:56:07.575Z,98143.94
2022-12-29T03:58:35.573Z,98145.47
2022-12-29T04:01:10.255Z,98153.50
2022-12-29T04:03:39.893Z,98151.28
2022-12-29T04:06:12.824Z,98143.16
2022-12-29T04:08:59.308Z,98147.03
2022-12-29T04:11:32.858Z,98139.09
2022-12-29T04:14:03.818Z,98147.75
2022-12-29T04:16:36.671Z,98150.66
2022-12-29T04:19:06.479Z,98146.59
2022-12-29T04:21:38.361Z,98163.63
2022-12-29T04:24:07.703Z,98170.47
2022-12-29T04:26:40.101Z,98167.81
2022-12-29T04:29:23.908Z,98162.38
2022-12-29T04:32:05.151Z,98173.19
2022-12-29T04:34:34.984Z,98162.72
2022-12-29T04:37:04.228Z,98154.94
2022-12-29T04:39:32.385Z,98149.25
2022-12-29T04:42:01.308Z,98146.59
2022-12-29T04:44:29.273Z,98151.88
2022-12-29T04:47:20.185Z,98152.78
2022-12-29T04:50:11.228Z,98149.69
2022-12-29T04:52:46.698Z,98161.28
2022-12-29T04:55:15.706Z,98150.50
2022-12-29T04:57:43.776Z,98154.00
2022-12-29T05:00:16.479Z,98154.63
2022-12-29T05:02:44.741Z,98158.78
2022-12-29T05:05:12.830Z,98158.53
2022-12-29T05:07:44.038Z,98146.94
2022-12-29T05:10:13.525Z,98148.72
2022-12-29T05:12:48.079Z,98138.44
2022-12-29T05:15:16.351Z,98139.16
2022-12-29T05:17:47.746Z,98136.91
2022-12-29T05:20:15.643Z,98129.16
2022-12-29T05:22:43.870Z,98125.75
2022-12-29T05:25:13.320Z,98122.31
2022-12-29T05:27:56.339Z,98121.72
2022-12-29T05:30:49.745Z,98127.28
2022-12-29T05:33:19.085Z,98140.16
2022-12-29T05:35:51.575Z,98147.78
2022-12-29T05:38:20.613Z,98146.25
2022-12-29T05:40:49.762Z,98131.06
2022-12-29T05:43:37.713Z,98137.34
2022-12-29T05:46:24.299Z,98128.72
2022-12-29T05:49:20.258Z,98136.56
2022-12-29T05:51:58.652Z,98140.16
2022-12-29T05:54:32.523Z,98136.56
2022-12-29T05:57:01.858Z,98133.75
2022-12-29T05:59:31.036Z,98130.72
2022-12-29T06:01:59.380Z,98127.16
2022-12-29T06:04:27.495Z,98122.84
2022-12-29T06:06:55.302Z,98121.59
2022-12-29T06:09:39.007Z,98099.25
2022-12-29T06:12:09.458Z,98101.06
2022-12-29T06:14:38.833Z,98099.13
2022-12-29T06:17:07.457Z,98111.38
2022-12-29T06:19:38.729Z,98122.34
2022-12-29T06:22:09.204Z,98114.28
2022-12-29T06:24:37.542Z,98120.69
2022-12-29T06:27:05.499Z,98129.91
2022-12-29T06:29:36.011Z,98129.06
2022-12-29T06:32:04.018Z,98125.69
2022-12-29T06:34:34.376Z,98132.56
2022-12-29T06:37:02.810Z,98127.78
2022-12-29T06:39:32.806Z,98123.50
2022-12-29T06:42:05.769Z,98129.31
2022-12-29T06:44:50.931Z,98126.84
2022-12-29T06:47:19.487Z,98135.19
2022-12-29T06:49:47.584Z,98137.69
2022-12-29T06:52:15.431Z,98127.69
2022-12-29T06:54:43.402Z,98130.91
2022-12-29T06:57:14.401Z,98128.53
2022-12-29T06:59:42.222Z,98128.53
2022-12-29T07:02:12.684Z,98138.00
2022-12-29T07:04:40.787Z,98133.50
2022-12-29T07:07:08.609Z,98138.84
2022-12-29T07:09:36.504Z,98135.19
2022-12-29T07:12:04.391Z,98138.38
2022-12-29T07:14:35.969Z,98143.78
2022-12-29T07:17:07.502Z,98144.88
2022-12-29T07:19:39.197Z,98126.19
2022-12-29T07:22:07.020Z,98137.88
2022-12-29T07:24:34.970Z,98133.09
2022-12-29T07:27:02.864Z,98143.69
2022-12-29T07:29:30.651Z,98136.44
2022-12-29T07:31:59.710Z,98145.81
2022-12-29T07:34:29.611Z,98144.00
2022-12-29T07:36:58.868Z,98148.88
2022-12-29T07:39:26.889Z,98140.38
2022-12-29T07:41:58.262Z,98140.25
2022-12-29T07:44:35.738Z,98148.03
2022-12-29T07:47:17.290Z,98145.94
2022-12-29T07:49:46.477Z,98141.22
2022-12-29T07:52:15.847Z,98150.41
2022-12-29T07:54:43.612Z,98155.69
2022-12-29T07:57:11.470Z,98149.88
2022-12-29T07:59:39.294Z,98155.69
2022-12-29T08:02:08.504Z,98156.25
2022-12-29T08:04:36.505Z,98164.66
2022-12-29T08:07:04.382Z,98167.47
2022-12-29T08:09:33.717Z,98175.59
2022-12-29T08:12:04.824Z,98167.81
2022-12-29T08:14:33.136Z,98177.56
2022-12-29T08:17:00.934Z,98178.56
2022-12-29T08:19:28.788Z,98179.53
2022-12-29T08:21:56.551Z,98175.25
2022-12-29T08:24:24.564Z,98171.69
2022-12-29T08:26:53.688Z,98168.88
2022-12-29T08:29:22.423Z,98176.88
2022-12-29T08:31:50.412Z,98172.00
2022-12-29T08:34:18.228Z,98169.78
2022-12-29T08:36:46.316Z,98166.72
2022-12-29T08:39:14.137Z,98170.06
2022-12-29T08:41:45.263Z,98164.22
2022-12-29T08:44:16.687Z,98159.81
2022-12-29T08:46:46.846Z,98156.56
2022-12-29T08:49:18.073Z,98165.88
2022-12-29T08:51:45.913Z,98159.47
2022-12-29T08:54:13.782Z,98167.47
2022-12-29T08:56:44.281Z,98168.56
2022-12-29T08:59:12.397Z,98179.53
2022-12-29T09:01:42.982Z,98180.28
2022-12-29T09:04:16.191Z,98177.81
2022-12-29T09:06:45.340Z,98182.66
2022-12-29T09:09:15.785Z,98191.09
2022-12-29T09:11:44.344Z,98186.53
2022-12-29T09:14:14.394Z,98200.47
2022-12-29T09:17:01.378Z,98197.25
2022-12-29T09:19:29.259Z,98197.81
2022-12-29T09:21:57.361Z,98203.53
2022-12-29T09:24:25.244Z,98199.25
2022-12-29T09:26:53.191Z,98210.41
2022-12-29T09:29:21.078Z,98206.00
2022-12-29T09:31:50.359Z,98203.63
2022-12-29T09:34:18.249Z,98204.00
2022-12-29T09:36:46.129Z,98204.28
2022-12-29T09:39:14.583Z,98204.00
2022-12-29T09:41:48.631Z,98209.34
2022-12-29T09:44:25.453Z,98199.56
2022-12-29T09:46:57.253Z,98197.91
2022-12-29T09:49:33.172Z,98206.59
2022-12-29T09:52:10.058Z,98202.41
2022-12-29T09:54:51.494Z,98195.56
2022-12-29T09:57:27.258Z,98197.03
2022-12-29T10:00:01.139Z,98199.84
2022-12-29T10:02:41.963Z,98196.69
2022-12-29T10:05:36.526Z,98202.66
2022-12-29T10:08:17.799Z,98201.72
2022-12-29T10:10:55.508Z,98199.88
2022-12-29T10:13:32.459Z,98203.22
2022-12-29T10:16:07.146Z,98195.97
2022-12-29T10:18:49.785Z,98201.38
2022-12-29T10:21:27.609Z,98198.75
2022-12-29T10:23:56.317Z,98193.41
2022-12-29T10:26:30.617Z,98203.88
2022-12-29T10:29:04.997Z,98203.03
2022-12-29T10:31:38.370Z,98207.09
2022-12-29T10:34:28.402Z,98208.34
2022-12-29T10:37:02.542Z,98206.53
2022-12-29T10:39:36.147Z,98205.78
2022-12-29T10:42:13.631Z,98198.38
2022-12-29T10:44:41.852Z,98198.50
2022-12-29T10:47:19.593Z,98191.19
2022-12-29T10:49:50.176Z,98193.63
2022-12-29T10:52:21.957Z,98201.53
2022-12-29T10:54:55.423Z,98202.34
2022-12-29T10:57:29.567Z,98200.88
2022-12-29T10:59:57.546Z,98204.59
2022-12-29T11:02:45.400Z,98200.88
2022-12-29T11:05:21.771Z,98203.84
2022-12-29T11:07:51.801Z,98203.75
2022-12-29T11:10:23.440Z,98203.03
2022-12-29T11:12:59.774Z,98198.44
2022-12-29T11:15:27.921Z,98193.38
2022-12-29T11:18:00.338Z,98204.97
2022-12-29T11:20:35.899Z,98203.47
2022-12-29T11:23:05.809Z,98202.66
2022-12-29T11:25:34.644Z,98193.06
2022-12-29T11:28:15.156Z,98196.50
2022-12-29T11:30:43.827Z,98193.38
2022-12-29T11:33:12.159Z,98193.53
2022-12-29T11:35:44.383Z,98188.44
2022-12-29T11:38:22.849Z,98196.97
2022-12-29T11:40:51.106Z,98196.28
2022-12-29T11:43:25.905Z,98189.34
2022-12-29T11:45:54.560Z,98195.88
2022-12-29T11:48:23.328Z,98203.47
2022-12-29T11:50:55.353Z,98205.72
2022-12-29T11:53:25.796Z,98202.06
2022-12-29T11:55:56.902Z,98208.78
2022-12-29T11:58:30.884Z,98211.16
2022-12-29T12:01:03.214Z,98207.31
2022-12-29T12:03:34.188Z,98212.13
2022-12-29T12:06:04.845Z,98220.88
2022-12-29T12:08:37.941Z,98220.94
2022-12-29T12:11:12.594Z,98224.47
2022-12-29T12:13:45.737Z,98217.44
2022-12-29T12:16:22.285Z,98207.13
2022-12-29T12:18:57.276Z,98216.91
2022-12-29T12:21:34.414Z,98218.28
2022-12-29T12:24:19.153Z,98209.06
2022-12-29T12:26:57.481Z,98216.59
2022-12-29T12:29:32.003Z,98212.13
2022-12-29T12:32:06.442Z,98212.56
2022-12-29T12:34:44.601Z,98206.41
2022-12-29T12:37:31.829Z,98200.16
2022-12-29T12:40:31.503Z,98193.56
2022-12-29T12:43:10.471Z,98185.88
2022-12-29T12:45:50.735Z,98194.47
2022-12-29T12:48:46.716Z,98188.97
2022-12-29T12:51:26.335Z,98178.84
2022-12-29T12:54:08.080Z,98176.94
2022-12-29T12:56:49.611Z,98176.38
2022-12-29T12:59:35.988Z,98175.50
2022-12-29T13:02:24.184Z,98166.28
2022-12-29T13:05:07.204Z,98166.94
2022-12-29T13:07:46.593Z,98161.34
2022-12-29T13:10:37.995Z,98163.78
2022-12-29T13:13:32.010Z,98160.75
2022-12-29T13:16:14.258Z,98158.84
2022-12-29T13:18:51.039Z,98159.22
2022-12-29T13:21:31.521Z,98161.09
2022-12-29T13:24:04.209Z,98161.13
2022-12-29T13:26:38.072Z,98152.13
2022-12-29T13:29:14.990Z,98156.38
2022-12-29T13:31:50.810Z,98143.34
2022-12-29T13:34:32.530Z,98149.75
2022-12-29T13:37:03.747Z,98152.97
2022-12-29T13:39:37.174Z,98154.31
2022-12-29T13:42:07.203Z,98150.09
2022-12-29T13:44:41.663Z,98155.50
2022-12-29T13:47:22.668Z,98156.47
2022-12-29T13:49:55.264Z,98148.66
2022-12-29T13:52:30.952Z,98155.72
2022-12-29T13:55:07.701Z,98155.34
2022-12-29T13:57:47.852Z,98154.78
2022-12-29T14:00:21.505Z,98153.97
2022-12-29T14:03:10.933Z,98160.06
2022-12-29T14:05:38.931Z,98155.63
2022-12-29T14:08:16.191Z,98158.38
2022-12-29T14:10:52.849Z,98162.03
2022-12-29T14:13:28.221Z,98153.41
2022-12-29T14:15:58.961Z,98163.00
2022-12-29T14:18:28.753Z,98163.28
2022-12-29T14:20:59.578Z,98159.66
2022-12-29T14:23:41.797Z,98175.72
2022-12-29T14:26:18.454Z,98171.03
2022-12-29T14:28:49.317Z,98169.56
2022-12-29T14:31:44.474Z,98167.19
2022-12-29T14:34:39.139Z,98170.41
2022-12-29T14:37:25.571Z,98176.88
2022-12-29T14:40:09.564Z,98167.28
2022-12-29T14:42:42.856Z,98185.00
2022-12-29T14:45:29.933Z,98172.34
2022-12-29T14:48:01.058Z,98177.78
2022-12-29T14:50:43.396Z,98172.97
2022-12-29T14:53:46.928Z,98166.84
2022-12-29T14:56:18.497Z,98174.16
2022-12-29T14:58:50.426Z,98167.19
2022-12-29T15:01:37.643Z,98162.44
2022-12-29T15:04:21.000Z,98166.31
2022-12-29T15:06:51.417Z,98161.06
2022-12-29T15:09:30.673Z,98164.97
2022-12-29T15:12:03.110Z,98162.75
2022-12-29T15:14:37.551Z,98153.94
2022-12-29T15:17:24.450Z,98159.41
2022-12-29T15:19:52.556Z,98161.91
2022-12-29T15:22:20.714Z,98166.91
2022-12-29T15:24:53.488Z,98163.31
2022-12-29T15:27:24.064Z,98170.53
2022-12-29T15:29:59.395Z,98172.50
2022-12-29T15:32:30.849Z,98179.09
2022-12-29T15:35:01.257Z,98183.84
2022-12-29T15:37:33.885Z,98197.09
2022-12-29T15:40:01.788Z,98227.53
2022-12-29T15:42:47.976Z,98259.38
2022-12-29T15:45:16.684Z,98254.84
2022-12-29T15:47:50.253Z,98259.13
2022-12-29T15:50:25.010Z,98261.03
2022-12-29T15:53:00.025Z,98259.31
2022-12-29T15:55:33.900Z,98257.16
2022-12-29T15:58:05.349Z,98264.00
2022-12-29T16:00:34.814Z,98261.88
2022-12-29T16:13:02.404Z,98270.50
2022-12-29T16:15:31.921Z,98272.38
2022-12-29T16:17:59.994Z,98277.41
2022-12-29T16:23:28.979Z,98272.00
2022-12-29T16:25:58.957Z,98279.50
2022-12-29T16:28:38.103Z,98290.19
2022-12-29T16:31:23.033Z,98283.00
2022-12-29T16:34:58.894Z,98270.19
2022-12-29T16:37:31.620Z,98271.44
2022-12-29T16:40:33.815Z,98268.78
2022-12-29T16:43:03.205Z,98283.81
2022-12-29T16:46:16.507Z,98282.22
2022-12-29T16:48:57.325Z,98287.03
2022-12-29T16:51:37.055Z,98291.13
2022-12-29T16:54:08.389Z,98291.56
2022-12-29T16:56:47.215Z,98302.28
2022-12-29T16:59:33.001Z,98306.81
2022-12-29T17:02:03.317Z,98306.09
2022-12-29T17:04:54.338Z,98316.72
2022-12-29T17:07:24.481Z,98315.56
2022-12-29T17:09:55.269Z,98316.22
2022-12-29T17:12:29.749Z,98308.41
2022-12-29T17:15:08.416Z,98308.47
2022-12-29T17:17:41.896Z,98315.50
2022-12-29T17:20:17.685Z,98321.84
2022-12-29T17:22:46.135Z,98315.97
2022-12-29T17:25:21.308Z,98321.25
2022-12-29T17:27:54.018Z,98319.84
2022-12-29T17:30:31.173Z,98324.56
2022-12-29T17:33:04.179Z,98331.44
2022-12-29T17:35:35.922Z,98328.41
2022-12-29T17:38:06.190Z,98329.28
2022-12-29T17:40:37.178Z,98337.88
2022-12-29T17:43:07.512Z,98331.25
2022-12-29T17:45:38.675Z,98340.31
2022-12-29T17:48:16.624Z,98331.78
2022-12-29T17:50:55.958Z,98334.75
2022-12-29T17:53:27.089Z,98337.13
2022-12-29T17:55:55.135Z,98332.59
2022-12-29T17:58:25.031Z,98342.09
2022-12-29T18:00:54.864Z,98344.03
2022-12-29T18:03:28.154Z,98346.34
2022-12-29T18:05:58.807Z,98354.53
2022-12-29T18:08:40.102Z,98346.63
2022-12-29T18:11:21.589Z,98354.31
2022-12-29T18:13:49.554Z,98338.88
2022-12-29T18:16:18.080Z,98338.47
2022-12-29T18:18:47.304Z,98347.03
2022-12-29T18:21:20.697Z,98341.13
2022-12-29T18:23:49.255Z,98332.50
2022-12-29T18:26:27.689Z,98341.88
2022-12-29T18:28:59.649Z,98337.91
2022-12-29T18:31:57.859Z,98343.31
2022-12-29T18:34:26.806Z,98356.03
2022-12-29T18:36:58.143Z,98347.19
2022-12-29T18:39:40.026Z,98348.09
2022-12-29T18:42:08.459Z,98341.63
2022-12-29T18:44:37.400Z,98346.19
2022-12-29T18:47:07.044Z,98348.00
2022-12-29T18:49:35.272Z,98354.03
2022-12-29T18:52:04.854Z,98339.47
2022-12-29T18:54:54.217Z,98345.00
2022-12-29T18:58:45.759Z,98342.13
2022-12-29T19:01:21.658Z,98348.00
2022-12-29T19:03:49.835Z,98347.66
2022-12-29T19:06:23.777Z,98353.88
2022-12-29T19:08:55.565Z,98356.91
2022-12-29T19:15:38.779Z,98352.09
2022-12-29T19:18:43.216Z,98361.94
2022-12-29T19:20:58.347Z,98350.06
2022-12-29T19:23:30.221Z,98357.38
2022-12-29T19:26:04.377Z,98355.06
2022-12-29T19:28:35.760Z,98368.22
2022-12-29T19:31:30.128Z,98367.53
2022-12-29T19:33:58.162Z,98364.16
2022-12-29T19:36:28.498Z,98369.56
2022-12-29T19:38:59.309Z,98367.75
2022-12-29T19:41:31.346Z,98365.69
2022-12-29T19:43:59.387Z,98359.44
2022-12-29T19:46:27.964Z,98344.63
2022-12-29T19:48:59.009Z,98358.03
2022-12-29T19:51:34.381Z,98347.94
2022-12-29T19:54:23.157Z,98353.59
2022-12-29T19:56:52.415Z,98352.28
2022-12-29T19:59:20.417Z,98360.84
2022-12-29T20:01:48.897Z,98361.13
2022-12-29T20:04:57.895Z,98351.91
2022-12-29T20:07:26.447Z,98360.53
2022-12-29T20:14:28.395Z,98354.69
2022-12-29T20:17:10.738Z,98359.72
2022-12-29T20:19:46.066Z,98373.44
2022-12-29T20:22:14.459Z,98381.13
2022-12-29T20:24:46.838Z,98372.47
2022-12-29T20:27:21.480Z,98376.06
2022-12-29T20:30:15.921Z,98387.78
2022-12-29T20:32:44.257Z,98387.16
2022-12-29T20:35:16.070Z,98391.28
2022-12-29T20:37:44.138Z,98387.06
2022-12-29T20:40:13.150Z,98389.97
2022-12-29T20:42:41.036Z,98394.22
2022-12-29T20:45:17.764Z,98398.13
2022-12-29T20:47:45.841Z,98404.38
2022-12-29T20:50:16.913Z,98402.47
2022-12-29T20:52:47.988Z,98405.69
2022-12-29T20:59:27.429Z,98416.34
2022-12-29T21:01:58.091Z,98416.34
2022-12-29T21:04:43.784Z,98422.97
2022-12-29T21:07:42.675Z,98425.44
2022-12-29T21:10:11.175Z,98434.19
2022-12-29T21:12:39.563Z,98426.78
2022-12-29T21:15:09.237Z,98431.84
2022-12-29T21:17:38.494Z,98426.72
2022-12-29T21:20:07.010Z,98429.59
2022-12-29T21:22:34.977Z,98427.94
2022-12-29T21:25:02.818Z,98432.22
2022-12-29T21:27:30.655Z,98427.31
2022-12-29T21:29:58.496Z,98434.78
2022-12-29T21:32:26.390Z,98432.59
2022-12-29T21:34:55.600Z,98429.31
2022-12-29T21:37:25.734Z,98422.97
2022-12-29T21:39:53.547Z,98417.97
2022-12-29T21:42:21.675Z,98419.59
2022-12-29T21:45:06.882Z,98429.94
2022-12-29T21:48:02.009Z,98418.66
2022-12-29T21:50:31.213Z,98416.78
2022-12-29T21:52:59.170Z,98421.50
2022-12-29T21:55:29.198Z,98420.75
2022-12-29T21:58:14.347Z,98415.66
2022-12-29T22:00:59.548Z,98415.34
2022-12-29T22:03:44.742Z,98424.31
2022-12-29T22:06:31.351Z,98419.72
2022-12-29T22:09:16.640Z,98432.94
2022-12-29T22:12:01.761Z,98443.47
2022-12-29T22:14:29.641Z,98445.09
2022-12-29T22:16:59.931Z,98458.06
2022-12-29T22:19:27.742Z,98452.03
2022-12-29T22:21:56.871Z,98455.16
2022-12-29T22:24:24.713Z,98467.75
2022-12-29T22:26:52.564Z,98464.16
2022-12-29T22:29:20.586Z,98477.41
2022-12-29T22:31:48.554Z,98475.75
2022-12-29T22:34:16.564Z,98477.53
2022-12-29T22:36:44.463Z,98476.16
2022-12-29T22:39:13.694Z,98490.09
2022-12-29T22:41:41.504Z,98495.88
2022-12-29T22:44:09.754Z,98507.59
2022-12-29T22:46:37.765Z,98507.41
2022-12-29T22:49:05.686Z,98508.97
2022-12-29T22:51:33.517Z,98525.34
2022-12-29T22:54:03.656Z,98533.25
2022-12-29T22:56:32.838Z,98533.25
2022-12-29T22:59:00.795Z,98530.16
2022-12-29T23:01:28.769Z,98532.28
2022-12-29T23:04:10.964Z,98544.19
2022-12-29T23:06:44.575Z,98547.59
2022-12-29T23:09:17.237Z,98543.25
2022-12-29T23:11:46.749Z,98548.84
2022-12-29T23:14:16.827Z,98550.81
2022-12-29T23:16:45.325Z,98549.88
2022-12-29T23:19:14.318Z,98550.63
2022-12-29T23:21:42.286Z,98552.09
2022-12-29T23:24:13.753Z,98562.47
2022-12-29T23:26:43.473Z,98560.56
2022-12-29T23:29:15.142Z,98554.84
2022-12-29T23:31:43.336Z,98564.13
2022-12-29T23:34:13.341Z,98571.72
2022-12-29T23:36:41.788Z,98571.41
2022-12-29T23:39:10.786Z,98572.69
2022-12-29T23:41:38.756Z,98574.13
2022-12-29T23:44:06.661Z,98570.34
2022-12-29T23:46:36.935Z,98576.97
2022-12-29T23:49:05.098Z,98576.47
2022-12-29T23:51:33.045Z,98583.97
2022-12-29T23:54:00.948Z,98581.31
2022-12-29T23:56:28.826Z,98580.69
2022-12-29T23:58:56.822Z,98574.88
